sensor_id;sensor_type;location;lat;lon;timestamp;P1;durP1;ratioP1;P2;durP2;ratioP2
29984;SDS011;17387;42.690;23.328;2023-03-31T00:01:09;22.70;;;10.10;;
29984;SDS011;17387;42.690;23.328;2023-03-31T00:03:35;19.73;;;9.70;;
29984;SDS011;17387;42.690;23.328;2023-03-31T00:06:03;21.55;;;10.15;;
29984;SDS011;17387;42.690;23.328;2023-03-31T00:08:29;18.05;;;9.27;;
29984;SDS011;17387;42.690;23.328;2023-03-31T00:11:04;24.15;;;10.55;;
29984;SDS011;17387;42.690;23.328;2023-03-31T00:13:31;18.70;;;9.98;;
29984;SDS011;17387;42.690;23.328;2023-03-31T00:16:00;25.73;;;10.90;;
29984;SDS011;17387;42.690;23.328;2023-03-31T00:18:26;25.13;;;12.55;;
29984;SDS011;17387;42.690;23.328;2023-03-31T00:20:52;26.40;;;11.45;;
29984;SDS011;17387;42.690;23.328;2023-03-31T00:23:17;24.73;;;11.10;;
29984;SDS011;17387;42.690;23.328;2023-03-31T00:25:54;25.58;;;11.50;;
29984;SDS011;17387;42.690;23.328;2023-03-31T00:28:27;25.85;;;12.63;;
29984;SDS011;17387;42.690;23.328;2023-03-31T00:30:53;22.50;;;11.48;;
29984;SDS011;17387;42.690;23.328;2023-03-31T00:33:23;21.80;;;10.37;;
29984;SDS011;17387;42.690;23.328;2023-03-31T00:35:52;19.60;;;9.40;;
29984;SDS011;17387;42.690;23.328;2023-03-31T00:38:17;20.48;;;9.85;;
29984;SDS011;17387;42.690;23.328;2023-03-31T00:40:46;19.75;;;9.05;;
29984;SDS011;17387;42.690;23.328;2023-03-31T00:48:28;18.85;;;9.77;;
29984;SDS011;17387;42.690;23.328;2023-03-31T00:51:01;20.02;;;10.63;;
29984;SDS011;17387;42.690;23.328;2023-03-31T00:53:31;25.85;;;9.95;;
29984;SDS011;17387;42.690;23.328;2023-03-31T00:55:58;18.10;;;9.85;;
29984;SDS011;17387;42.690;23.328;2023-03-31T00:58:29;20.55;;;10.45;;
29984;SDS011;17387;42.690;23.328;2023-03-31T01:00:57;20.33;;;10.55;;
29984;SDS011;17387;42.690;23.328;2023-03-31T01:03:24;17.38;;;9.85;;
29984;SDS011;17387;42.690;23.328;2023-03-31T01:08:15;21.75;;;10.05;;
29984;SDS011;17387;42.690;23.328;2023-03-31T01:10:43;19.63;;;10.10;;
29984;SDS011;17387;42.690;23.328;2023-03-31T01:13:11;17.65;;;9.45;;
29984;SDS011;17387;42.690;23.328;2023-03-31T01:15:37;19.73;;;9.98;;
29984;SDS011;17387;42.690;23.328;2023-03-31T01:18:03;21.35;;;9.88;;
29984;SDS011;17387;42.690;23.328;2023-03-31T01:23:10;20.38;;;9.35;;
29984;SDS011;17387;42.690;23.328;2023-03-31T01:25:45;15.68;;;8.55;;
29984;SDS011;17387;42.690;23.328;2023-03-31T01:30:50;18.38;;;9.65;;
29984;SDS011;17387;42.690;23.328;2023-03-31T01:48:12;21.80;;;9.57;;
29984;SDS011;17387;42.690;23.328;2023-03-31T01:50:51;15.30;;;8.30;;
29984;SDS011;17387;42.690;23.328;2023-03-31T01:53:27;17.08;;;7.97;;
29984;SDS011;17387;42.690;23.328;2023-03-31T02:00:59;19.88;;;8.95;;
29984;SDS011;17387;42.690;23.328;2023-03-31T02:03:29;18.90;;;8.45;;
29984;SDS011;17387;42.690;23.328;2023-03-31T02:05:59;21.58;;;8.45;;
29984;SDS011;17387;42.690;23.328;2023-03-31T02:08:31;18.83;;;8.40;;
29984;SDS011;17387;42.690;23.328;2023-03-31T02:10:58;18.42;;;7.82;;
29984;SDS011;17387;42.690;23.328;2023-03-31T02:13:24;17.60;;;8.07;;
29984;SDS011;17387;42.690;23.328;2023-03-31T02:15:52;13.25;;;7.15;;
29984;SDS011;17387;42.690;23.328;2023-03-31T02:18:19;17.30;;;7.20;;
29984;SDS011;17387;42.690;23.328;2023-03-31T02:20:47;16.77;;;7.72;;
29984;SDS011;17387;42.690;23.328;2023-03-31T02:23:19;19.88;;;8.05;;
29984;SDS011;17387;42.690;23.328;2023-03-31T02:26:18;17.20;;;7.90;;
29984;SDS011;17387;42.690;23.328;2023-03-31T02:28:42;16.58;;;8.00;;
29984;SDS011;17387;42.690;23.328;2023-03-31T02:31:12;14.27;;;8.02;;
29984;SDS011;17387;42.690;23.328;2023-03-31T02:33:41;14.85;;;7.97;;
29984;SDS011;17387;42.690;23.328;2023-03-31T02:36:07;17.40;;;8.35;;
29984;SDS011;17387;42.690;23.328;2023-03-31T02:38:36;19.98;;;8.70;;
29984;SDS011;17387;42.690;23.328;2023-03-31T02:41:03;20.30;;;8.93;;
29984;SDS011;17387;42.690;23.328;2023-03-31T02:43:28;17.23;;;8.45;;
29984;SDS011;17387;42.690;23.328;2023-03-31T02:45:53;17.30;;;8.52;;
29984;SDS011;17387;42.690;23.328;2023-03-31T02:48:26;19.92;;;8.80;;
29984;SDS011;17387;42.690;23.328;2023-03-31T03:09:00;18.35;;;10.30;;
29984;SDS011;17387;42.690;23.328;2023-03-31T03:11:34;23.27;;;11.38;;
29984;SDS011;17387;42.690;23.328;2023-03-31T03:16:31;21.48;;;12.00;;
29984;SDS011;17387;42.690;23.328;2023-03-31T03:19:00;22.27;;;12.13;;
29984;SDS011;17387;42.690;23.328;2023-03-31T03:21:46;20.45;;;11.55;;
29984;SDS011;17387;42.690;23.328;2023-03-31T03:24:13;21.50;;;11.70;;
29984;SDS011;17387;42.690;23.328;2023-03-31T03:26:39;25.73;;;12.48;;
29984;SDS011;17387;42.690;23.328;2023-03-31T03:29:05;26.30;;;12.70;;
29984;SDS011;17387;42.690;23.328;2023-03-31T03:31:31;20.73;;;11.32;;
29984;SDS011;17387;42.690;23.328;2023-03-31T03:33:57;26.33;;;10.60;;
29984;SDS011;17387;42.690;23.328;2023-03-31T03:36:26;24.10;;;11.45;;
29984;SDS011;17387;42.690;23.328;2023-03-31T03:38:54;24.13;;;12.18;;
29984;SDS011;17387;42.690;23.328;2023-03-31T03:41:19;23.60;;;11.43;;
29984;SDS011;17387;42.690;23.328;2023-03-31T03:43:47;19.35;;;9.05;;
29984;SDS011;17387;42.690;23.328;2023-03-31T03:46:22;20.75;;;10.18;;
29984;SDS011;17387;42.690;23.328;2023-03-31T03:48:47;13.95;;;7.25;;
29984;SDS011;17387;42.690;23.328;2023-03-31T03:51:12;21.90;;;6.65;;
29984;SDS011;17387;42.690;23.328;2023-03-31T03:53:38;15.65;;;7.38;;
29984;SDS011;17387;42.690;23.328;2023-03-31T03:56:03;16.27;;;6.47;;
29984;SDS011;17387;42.690;23.328;2023-03-31T03:58:28;17.45;;;7.43;;
29984;SDS011;17387;42.690;23.328;2023-03-31T04:00:57;13.18;;;6.25;;
29984;SDS011;17387;42.690;23.328;2023-03-31T04:03:22;15.18;;;6.15;;
29984;SDS011;17387;42.690;23.328;2023-03-31T04:05:48;14.18;;;5.97;;
29984;SDS011;17387;42.690;23.328;2023-03-31T04:08:14;17.98;;;6.70;;
29984;SDS011;17387;42.690;23.328;2023-03-31T04:10:47;13.90;;;5.63;;
29984;SDS011;17387;42.690;23.328;2023-03-31T04:13:16;14.60;;;6.30;;
29984;SDS011;17387;42.690;23.328;2023-03-31T04:15:49;11.73;;;6.50;;
29984;SDS011;17387;42.690;23.328;2023-03-31T04:18:15;16.27;;;7.20;;
29984;SDS011;17387;42.690;23.328;2023-03-31T04:20:49;13.30;;;5.60;;
29984;SDS011;17387;42.690;23.328;2023-03-31T04:23:27;17.52;;;8.30;;
29984;SDS011;17387;42.690;23.328;2023-03-31T04:25:53;18.23;;;8.32;;
29984;SDS011;17387;42.690;23.328;2023-03-31T04:28:21;17.17;;;8.73;;
29984;SDS011;17387;42.690;23.328;2023-03-31T04:30:46;19.52;;;8.18;;
29984;SDS011;17387;42.690;23.328;2023-03-31T04:33:13;12.63;;;7.65;;
29984;SDS011;17387;42.690;23.328;2023-03-31T04:35:39;14.45;;;7.97;;
29984;SDS011;17387;42.690;23.328;2023-03-31T04:38:15;16.65;;;10.32;;
29984;SDS011;17387;42.690;23.328;2023-03-31T04:40:45;15.30;;;8.48;;
29984;SDS011;17387;42.690;23.328;2023-03-31T04:43:13;18.38;;;6.72;;
29984;SDS011;17387;42.690;23.328;2023-03-31T04:45:39;16.67;;;7.88;;
29984;SDS011;17387;42.690;23.328;2023-03-31T04:48:05;14.25;;;6.10;;
29984;SDS011;17387;42.690;23.328;2023-03-31T04:50:33;12.63;;;5.30;;
29984;SDS011;17387;42.690;23.328;2023-03-31T04:52:59;16.42;;;5.85;;
29984;SDS011;17387;42.690;23.328;2023-03-31T04:55:24;13.50;;;4.90;;
29984;SDS011;17387;42.690;23.328;2023-03-31T04:57:49;11.57;;;4.95;;
29984;SDS011;17387;42.690;23.328;2023-03-31T05:00:15;12.75;;;4.70;;
29984;SDS011;17387;42.690;23.328;2023-03-31T05:02:41;18.05;;;5.72;;
29984;SDS011;17387;42.690;23.328;2023-03-31T05:05:06;11.82;;;6.30;;
29984;SDS011;17387;42.690;23.328;2023-03-31T05:07:31;15.15;;;7.95;;
29984;SDS011;17387;42.690;23.328;2023-03-31T05:09:57;15.20;;;7.03;;
29984;SDS011;17387;42.690;23.328;2023-03-31T05:12:22;15.32;;;7.57;;
29984;SDS011;17387;42.690;23.328;2023-03-31T05:14:50;18.55;;;8.50;;
29984;SDS011;17387;42.690;23.328;2023-03-31T05:17:15;16.92;;;9.43;;
29984;SDS011;17387;42.690;23.328;2023-03-31T05:19:42;16.27;;;9.07;;
29984;SDS011;17387;42.690;23.328;2023-03-31T05:22:07;18.27;;;9.15;;
29984;SDS011;17387;42.690;23.328;2023-03-31T05:24:32;17.40;;;9.50;;
29984;SDS011;17387;42.690;23.328;2023-03-31T05:26:58;18.08;;;8.98;;
29984;SDS011;17387;42.690;23.328;2023-03-31T05:29:23;16.98;;;9.68;;
29984;SDS011;17387;42.690;23.328;2023-03-31T05:31:48;16.63;;;9.85;;
29984;SDS011;17387;42.690;23.328;2023-03-31T05:34:14;16.75;;;10.07;;
29984;SDS011;17387;42.690;23.328;2023-03-31T05:36:39;17.33;;;9.75;;
29984;SDS011;17387;42.690;23.328;2023-03-31T05:39:05;20.58;;;9.27;;
29984;SDS011;17387;42.690;23.328;2023-03-31T05:41:30;16.83;;;9.77;;
29984;SDS011;17387;42.690;23.328;2023-03-31T05:43:56;20.30;;;10.82;;
29984;SDS011;17387;42.690;23.328;2023-03-31T05:46:21;20.20;;;9.98;;
29984;SDS011;17387;42.690;23.328;2023-03-31T05:48:52;17.30;;;9.77;;
29984;SDS011;17387;42.690;23.328;2023-03-31T05:51:20;17.80;;;9.38;;
29984;SDS011;17387;42.690;23.328;2023-03-31T05:53:46;15.98;;;9.25;;
29984;SDS011;17387;42.690;23.328;2023-03-31T05:56:11;18.25;;;10.00;;
29984;SDS011;17387;42.690;23.328;2023-03-31T05:58:37;19.33;;;9.20;;
29984;SDS011;17387;42.690;23.328;2023-03-31T06:01:21;15.95;;;8.50;;
29984;SDS011;17387;42.690;23.328;2023-03-31T06:03:47;12.77;;;8.35;;
29984;SDS011;17387;42.690;23.328;2023-03-31T06:06:13;13.18;;;7.95;;
29984;SDS011;17387;42.690;23.328;2023-03-31T06:08:39;19.83;;;9.68;;
29984;SDS011;17387;42.690;23.328;2023-03-31T06:11:05;18.45;;;8.07;;
29984;SDS011;17387;42.690;23.328;2023-03-31T06:13:31;21.98;;;9.50;;
29984;SDS011;17387;42.690;23.328;2023-03-31T06:15:57;15.65;;;8.23;;
29984;SDS011;17387;42.690;23.328;2023-03-31T06:18:22;15.20;;;8.23;;
29984;SDS011;17387;42.690;23.328;2023-03-31T06:20:48;16.73;;;7.88;;
29984;SDS011;17387;42.690;23.328;2023-03-31T06:23:13;16.60;;;8.43;;
29984;SDS011;17387;42.690;23.328;2023-03-31T06:25:38;16.02;;;8.52;;
29984;SDS011;17387;42.690;23.328;2023-03-31T06:28:04;22.77;;;8.90;;
29984;SDS011;17387;42.690;23.328;2023-03-31T06:30:32;18.30;;;7.95;;
29984;SDS011;17387;42.690;23.328;2023-03-31T06:32:57;19.73;;;9.40;;
29984;SDS011;17387;42.690;23.328;2023-03-31T06:35:22;18.83;;;9.70;;
29984;SDS011;17387;42.690;23.328;2023-03-31T06:37:50;22.25;;;9.48;;
29984;SDS011;17387;42.690;23.328;2023-03-31T06:40:15;23.67;;;9.85;;
29984;SDS011;17387;42.690;23.328;2023-03-31T06:42:41;20.42;;;10.38;;
29984;SDS011;17387;42.690;23.328;2023-03-31T06:45:06;28.55;;;11.45;;
29984;SDS011;17387;42.690;23.328;2023-03-31T06:47:31;23.98;;;10.95;;
29984;SDS011;17387;42.690;23.328;2023-03-31T06:49:57;25.17;;;10.07;;
29984;SDS011;17387;42.690;23.328;2023-03-31T06:52:22;23.92;;;10.63;;
29984;SDS011;17387;42.690;23.328;2023-03-31T06:54:47;16.80;;;7.63;;
29984;SDS011;17387;42.690;23.328;2023-03-31T06:57:13;13.07;;;4.90;;
29984;SDS011;17387;42.690;23.328;2023-03-31T06:59:38;15.15;;;4.75;;
29984;SDS011;17387;42.690;23.328;2023-03-31T07:02:03;15.05;;;4.53;;
29984;SDS011;17387;42.690;23.328;2023-03-31T07:04:29;11.05;;;3.42;;
29984;SDS011;17387;42.690;23.328;2023-03-31T07:06:54;7.63;;;3.15;;
29984;SDS011;17387;42.690;23.328;2023-03-31T07:09:21;6.72;;;3.03;;
29984;SDS011;17387;42.690;23.328;2023-03-31T07:11:47;6.78;;;2.80;;
29984;SDS011;17387;42.690;23.328;2023-03-31T07:14:13;20.77;;;8.68;;
29984;SDS011;17387;42.690;23.328;2023-03-31T07:16:38;9.90;;;3.60;;
29984;SDS011;17387;42.690;23.328;2023-03-31T07:19:05;7.38;;;3.80;;
29984;SDS011;17387;42.690;23.328;2023-03-31T07:21:31;6.20;;;3.08;;
29984;SDS011;17387;42.690;23.328;2023-03-31T07:23:56;5.65;;;3.08;;
29984;SDS011;17387;42.690;23.328;2023-03-31T07:26:21;11.43;;;4.30;;
29984;SDS011;17387;42.690;23.328;2023-03-31T07:28:47;12.70;;;4.03;;
29984;SDS011;17387;42.690;23.328;2023-03-31T07:31:13;8.93;;;4.00;;
29984;SDS011;17387;42.690;23.328;2023-03-31T07:33:38;10.38;;;4.47;;
29984;SDS011;17387;42.690;23.328;2023-03-31T07:36:06;7.20;;;4.43;;
29984;SDS011;17387;42.690;23.328;2023-03-31T07:38:32;9.38;;;4.40;;
29984;SDS011;17387;42.690;23.328;2023-03-31T07:40:57;14.25;;;4.70;;
29984;SDS011;17387;42.690;23.328;2023-03-31T07:43:22;8.50;;;4.43;;
29984;SDS011;17387;42.690;23.328;2023-03-31T07:45:48;11.13;;;4.88;;
29984;SDS011;17387;42.690;23.328;2023-03-31T07:48:18;9.02;;;4.70;;
29984;SDS011;17387;42.690;23.328;2023-03-31T07:50:45;8.82;;;4.50;;
29984;SDS011;17387;42.690;23.328;2023-03-31T07:53:17;9.13;;;4.47;;
29984;SDS011;17387;42.690;23.328;2023-03-31T07:55:42;11.25;;;4.80;;
29984;SDS011;17387;42.690;23.328;2023-03-31T07:58:07;10.38;;;5.03;;
29984;SDS011;17387;42.690;23.328;2023-03-31T08:00:35;10.90;;;4.90;;
29984;SDS011;17387;42.690;23.328;2023-03-31T08:03:01;8.27;;;4.72;;
29984;SDS011;17387;42.690;23.328;2023-03-31T08:05:38;8.32;;;3.60;;
29984;SDS011;17387;42.690;23.328;2023-03-31T08:08:04;6.72;;;3.80;;
29984;SDS011;17387;42.690;23.328;2023-03-31T08:10:29;9.95;;;3.50;;
29984;SDS011;17387;42.690;23.328;2023-03-31T08:12:54;10.90;;;3.30;;
29984;SDS011;17387;42.690;23.328;2023-03-31T08:15:20;9.20;;;3.67;;
29984;SDS011;17387;42.690;23.328;2023-03-31T08:17:45;9.40;;;4.13;;
29984;SDS011;17387;42.690;23.328;2023-03-31T08:20:13;9.40;;;3.72;;
29984;SDS011;17387;42.690;23.328;2023-03-31T08:22:39;6.45;;;3.30;;
29984;SDS011;17387;42.690;23.328;2023-03-31T08:25:05;10.23;;;3.33;;
29984;SDS011;17387;42.690;23.328;2023-03-31T08:27:32;10.93;;;3.92;;
29984;SDS011;17387;42.690;23.328;2023-03-31T08:29:58;8.05;;;3.40;;
29984;SDS011;17387;42.690;23.328;2023-03-31T08:32:29;8.82;;;3.20;;
29984;SDS011;17387;42.690;23.328;2023-03-31T08:34:54;8.77;;;2.72;;
29984;SDS011;17387;42.690;23.328;2023-03-31T08:37:20;8.27;;;3.30;;
29984;SDS011;17387;42.690;23.328;2023-03-31T08:39:45;6.72;;;3.25;;
29984;SDS011;17387;42.690;23.328;2023-03-31T08:44:54;9.68;;;3.00;;
29984;SDS011;17387;42.690;23.328;2023-03-31T08:47:21;14.85;;;3.53;;
29984;SDS011;17387;42.690;23.328;2023-03-31T08:49:49;12.95;;;3.00;;
29984;SDS011;17387;42.690;23.328;2023-03-31T08:52:22;11.85;;;3.10;;
29984;SDS011;17387;42.690;23.328;2023-03-31T08:54:50;14.05;;;3.55;;
29984;SDS011;17387;42.690;23.328;2023-03-31T08:57:27;7.63;;;2.70;;
29984;SDS011;17387;42.690;23.328;2023-03-31T08:59:55;7.70;;;3.00;;
29984;SDS011;17387;42.690;23.328;2023-03-31T09:02:36;9.25;;;2.88;;
29984;SDS011;17387;42.690;23.328;2023-03-31T09:05:17;6.95;;;3.40;;
29984;SDS011;17387;42.690;23.328;2023-03-31T09:15:27;10.90;;;2.80;;
29984;SDS011;17387;42.690;23.328;2023-03-31T09:17:53;7.85;;;2.97;;
29984;SDS011;17387;42.690;23.328;2023-03-31T09:20:33;7.20;;;2.70;;
29984;SDS011;17387;42.690;23.328;2023-03-31T09:25:33;8.88;;;2.55;;
29984;SDS011;17387;42.690;23.328;2023-03-31T09:27:59;8.75;;;3.05;;
29984;SDS011;17387;42.690;23.328;2023-03-31T09:30:33;8.10;;;2.33;;
29984;SDS011;17387;42.690;23.328;2023-03-31T09:33:05;8.80;;;2.40;;
29984;SDS011;17387;42.690;23.328;2023-03-31T09:35:35;6.15;;;2.55;;
29984;SDS011;17387;42.690;23.328;2023-03-31T09:38:00;6.68;;;2.58;;
29984;SDS011;17387;42.690;23.328;2023-03-31T09:40:26;5.22;;;2.60;;
29984;SDS011;17387;42.690;23.328;2023-03-31T09:45:40;10.90;;;3.45;;
29984;SDS011;17387;42.690;23.328;2023-03-31T09:48:15;8.20;;;2.58;;
29984;SDS011;17387;42.690;23.328;2023-03-31T09:50:46;7.03;;;2.53;;
29984;SDS011;17387;42.690;23.328;2023-03-31T09:53:17;5.07;;;2.27;;
29984;SDS011;17387;42.690;23.328;2023-03-31T09:55:45;7.25;;;2.60;;
29984;SDS011;17387;42.690;23.328;2023-03-31T09:58:13;7.57;;;2.90;;
29984;SDS011;17387;42.690;23.328;2023-03-31T10:00:42;8.13;;;2.67;;
29984;SDS011;17387;42.690;23.328;2023-03-31T10:03:09;10.95;;;3.00;;
29984;SDS011;17387;42.690;23.328;2023-03-31T10:05:39;7.00;;;2.60;;
29984;SDS011;17387;42.690;23.328;2023-03-31T10:10:41;8.73;;;2.20;;
29984;SDS011;17387;42.690;23.328;2023-03-31T10:13:08;7.35;;;2.63;;
29984;SDS011;17387;42.690;23.328;2023-03-31T10:15:37;6.35;;;2.47;;
29984;SDS011;17387;42.690;23.328;2023-03-31T10:18:03;6.53;;;2.55;;
29984;SDS011;17387;42.690;23.328;2023-03-31T10:23:04;7.60;;;2.70;;
29984;SDS011;17387;42.690;23.328;2023-03-31T10:25:30;5.85;;;2.05;;
29984;SDS011;17387;42.690;23.328;2023-03-31T10:27:56;5.60;;;2.40;;
29984;SDS011;17387;42.690;23.328;2023-03-31T10:30:27;5.85;;;2.45;;
29984;SDS011;17387;42.690;23.328;2023-03-31T10:32:54;5.03;;;2.17;;
29984;SDS011;17387;42.690;23.328;2023-03-31T10:38:16;6.38;;;2.80;;
29984;SDS011;17387;42.690;23.328;2023-03-31T10:40:53;8.73;;;2.65;;
29984;SDS011;17387;42.690;23.328;2023-03-31T10:43:28;5.13;;;2.35;;
29984;SDS011;17387;42.690;23.328;2023-03-31T10:46:01;7.90;;;2.80;;
29984;SDS011;17387;42.690;23.328;2023-03-31T10:48:30;6.85;;;2.70;;
29984;SDS011;17387;42.690;23.328;2023-03-31T10:51:14;9.07;;;2.97;;
29984;SDS011;17387;42.690;23.328;2023-03-31T10:53:47;5.55;;;2.20;;
29984;SDS011;17387;42.690;23.328;2023-03-31T11:15:03;7.65;;;2.63;;
29984;SDS011;17387;42.690;23.328;2023-03-31T11:17:57;10.02;;;3.05;;
29984;SDS011;17387;42.690;23.328;2023-03-31T11:40:02;9.50;;;3.17;;
29984;SDS011;17387;42.690;23.328;2023-03-31T11:42:36;9.60;;;2.70;;
29984;SDS011;17387;42.690;23.328;2023-03-31T11:45:04;9.43;;;2.90;;
29984;SDS011;17387;42.690;23.328;2023-03-31T11:47:35;12.02;;;3.08;;
29984;SDS011;17387;42.690;23.328;2023-03-31T11:50:09;4.18;;;2.33;;
29984;SDS011;17387;42.690;23.328;2023-03-31T11:52:39;9.30;;;2.88;;
29984;SDS011;17387;42.690;23.328;2023-03-31T11:55:11;3.65;;;2.47;;
29984;SDS011;17387;42.690;23.328;2023-03-31T11:57:43;10.40;;;2.60;;
29984;SDS011;17387;42.690;23.328;2023-03-31T12:00:15;5.63;;;2.90;;
29984;SDS011;17387;42.690;23.328;2023-03-31T12:02:47;8.93;;;3.20;;
29984;SDS011;17387;42.690;23.328;2023-03-31T12:05:14;7.15;;;2.50;;
29984;SDS011;17387;42.690;23.328;2023-03-31T12:12:59;9.07;;;2.85;;
29984;SDS011;17387;42.690;23.328;2023-03-31T12:15:32;8.90;;;2.80;;
29984;SDS011;17387;42.690;23.328;2023-03-31T12:18:21;6.38;;;2.83;;
29984;SDS011;17387;42.690;23.328;2023-03-31T12:20:52;5.47;;;2.70;;
29984;SDS011;17387;42.690;23.328;2023-03-31T12:23:21;6.80;;;2.75;;
29984;SDS011;17387;42.690;23.328;2023-03-31T12:25:49;6.28;;;2.40;;
29984;SDS011;17387;42.690;23.328;2023-03-31T12:28:17;6.93;;;2.40;;
29984;SDS011;17387;42.690;23.328;2023-03-31T12:30:43;7.38;;;2.30;;
29984;SDS011;17387;42.690;23.328;2023-03-31T12:33:14;7.78;;;2.58;;
29984;SDS011;17387;42.690;23.328;2023-03-31T12:35:50;6.60;;;2.80;;
29984;SDS011;17387;42.690;23.328;2023-03-31T12:45:42;5.20;;;2.30;;
29984;SDS011;17387;42.690;23.328;2023-03-31T12:48:14;6.95;;;2.75;;
29984;SDS011;17387;42.690;23.328;2023-03-31T12:53:48;5.85;;;2.60;;
29984;SDS011;17387;42.690;23.328;2023-03-31T12:56:22;6.00;;;2.42;;
29984;SDS011;17387;42.690;23.328;2023-03-31T12:58:47;9.52;;;2.38;;
29984;SDS011;17387;42.690;23.328;2023-03-31T13:01:20;5.82;;;2.40;;
29984;SDS011;17387;42.690;23.328;2023-03-31T13:03:49;7.28;;;2.10;;
29984;SDS011;17387;42.690;23.328;2023-03-31T13:08:54;8.10;;;2.40;;
29984;SDS011;17387;42.690;23.328;2023-03-31T13:16:29;8.68;;;2.38;;
29984;SDS011;17387;42.690;23.328;2023-03-31T13:19:01;6.35;;;2.47;;
29984;SDS011;17387;42.690;23.328;2023-03-31T13:21:27;4.30;;;2.10;;
29984;SDS011;17387;42.690;23.328;2023-03-31T13:23:59;6.43;;;2.25;;
29984;SDS011;17387;42.690;23.328;2023-03-31T13:26:35;9.10;;;2.55;;
29984;SDS011;17387;42.690;23.328;2023-03-31T13:34:22;5.88;;;1.92;;
29984;SDS011;17387;42.690;23.328;2023-03-31T13:36:54;5.25;;;2.22;;
29984;SDS011;17387;42.690;23.328;2023-03-31T13:49:49;5.60;;;2.20;;
29984;SDS011;17387;42.690;23.328;2023-03-31T13:52:25;4.90;;;2.10;;
29984;SDS011;17387;42.690;23.328;2023-03-31T14:05:35;9.20;;;2.75;;
29984;SDS011;17387;42.690;23.328;2023-03-31T14:08:28;6.72;;;2.70;;
29984;SDS011;17387;42.690;23.328;2023-03-31T14:10:48;7.70;;;3.00;;
29984;SDS011;17387;42.690;23.328;2023-03-31T14:13:14;6.28;;;2.20;;
29984;SDS011;17387;42.690;23.328;2023-03-31T14:15:58;8.32;;;2.72;;
29984;SDS011;17387;42.690;23.328;2023-03-31T14:18:28;12.57;;;5.05;;
29984;SDS011;17387;42.690;23.328;2023-03-31T14:23:50;6.13;;;2.22;;
29984;SDS011;17387;42.690;23.328;2023-03-31T14:26:38;6.93;;;2.80;;
29984;SDS011;17387;42.690;23.328;2023-03-31T14:37:09;5.13;;;2.30;;
29984;SDS011;17387;42.690;23.328;2023-03-31T14:39:54;6.53;;;2.80;;
29984;SDS011;17387;42.690;23.328;2023-03-31T14:44:45;7.03;;;2.50;;
29984;SDS011;17387;42.690;23.328;2023-03-31T14:47:22;7.88;;;2.35;;
29984;SDS011;17387;42.690;23.328;2023-03-31T14:49:57;6.68;;;2.65;;
29984;SDS011;17387;42.690;23.328;2023-03-31T14:52:23;7.70;;;2.50;;
29984;SDS011;17387;42.690;23.328;2023-03-31T14:54:49;7.88;;;2.53;;
29984;SDS011;17387;42.690;23.328;2023-03-31T14:57:17;6.97;;;2.45;;
29984;SDS011;17387;42.690;23.328;2023-03-31T14:59:44;7.32;;;2.65;;
29984;SDS011;17387;42.690;23.328;2023-03-31T15:02:12;10.38;;;2.92;;
29984;SDS011;17387;42.690;23.328;2023-03-31T15:04:39;4.90;;;2.10;;
29984;SDS011;17387;42.690;23.328;2023-03-31T15:07:09;5.95;;;2.20;;
29984;SDS011;17387;42.690;23.328;2023-03-31T15:09:37;4.63;;;2.30;;
29984;SDS011;17387;42.690;23.328;2023-03-31T15:12:11;5.13;;;2.10;;
29984;SDS011;17387;42.690;23.328;2023-03-31T15:14:47;6.45;;;2.75;;
29984;SDS011;17387;42.690;23.328;2023-03-31T15:17:23;7.88;;;2.45;;
29984;SDS011;17387;42.690;23.328;2023-03-31T15:19:55;6.85;;;2.65;;
29984;SDS011;17387;42.690;23.328;2023-03-31T15:22:25;8.75;;;3.25;;
29984;SDS011;17387;42.690;23.328;2023-03-31T15:24:52;6.68;;;2.90;;
29984;SDS011;17387;42.690;23.328;2023-03-31T15:29:53;8.73;;;3.90;;
29984;SDS011;17387;42.690;23.328;2023-03-31T15:32:25;6.25;;;2.40;;
29984;SDS011;17387;42.690;23.328;2023-03-31T15:34:51;7.07;;;2.67;;
29984;SDS011;17387;42.690;23.328;2023-03-31T15:37:28;8.82;;;2.95;;
29984;SDS011;17387;42.690;23.328;2023-03-31T15:39:57;8.45;;;3.42;;
29984;SDS011;17387;42.690;23.328;2023-03-31T15:42:33;8.90;;;2.67;;
29984;SDS011;17387;42.690;23.328;2023-03-31T15:45:22;7.68;;;2.75;;
29984;SDS011;17387;42.690;23.328;2023-03-31T15:47:52;7.28;;;2.47;;
29984;SDS011;17387;42.690;23.328;2023-03-31T15:50:26;7.97;;;3.33;;
29984;SDS011;17387;42.690;23.328;2023-03-31T15:52:53;8.48;;;3.80;;
29984;SDS011;17387;42.690;23.328;2023-03-31T15:57:56;6.90;;;2.30;;
29984;SDS011;17387;42.690;23.328;2023-03-31T16:00:41;9.57;;;2.95;;
29984;SDS011;17387;42.690;23.328;2023-03-31T16:06:18;8.52;;;4.13;;
29984;SDS011;17387;42.690;23.328;2023-03-31T16:08:52;8.13;;;3.88;;
29984;SDS011;17387;42.690;23.328;2023-03-31T16:11:21;9.10;;;5.07;;
29984;SDS011;17387;42.690;23.328;2023-03-31T16:13:49;9.02;;;3.38;;
29984;SDS011;17387;42.690;23.328;2023-03-31T16:16:37;10.77;;;3.90;;
29984;SDS011;17387;42.690;23.328;2023-03-31T16:19:05;10.43;;;5.22;;
29984;SDS011;17387;42.690;23.328;2023-03-31T16:21:50;11.07;;;4.90;;
29984;SDS011;17387;42.690;23.328;2023-03-31T16:24:35;9.05;;;4.15;;
29984;SDS011;17387;42.690;23.328;2023-03-31T16:27:10;21.58;;;7.40;;
29984;SDS011;17387;42.690;23.328;2023-03-31T16:30:05;22.60;;;10.38;;
29984;SDS011;17387;42.690;23.328;2023-03-31T16:32:39;15.00;;;7.63;;
29984;SDS011;17387;42.690;23.328;2023-03-31T16:35:40;12.88;;;5.80;;
29984;SDS011;17387;42.690;23.328;2023-03-31T16:38:07;17.90;;;6.43;;
29984;SDS011;17387;42.690;23.328;2023-03-31T16:40:56;15.52;;;6.18;;
29984;SDS011;17387;42.690;23.328;2023-03-31T16:43:38;47.05;;;18.48;;
29984;SDS011;17387;42.690;23.328;2023-03-31T16:46:22;27.92;;;10.85;;
29984;SDS011;17387;42.690;23.328;2023-03-31T16:48:51;39.00;;;16.95;;
29984;SDS011;17387;42.690;23.328;2023-03-31T16:51:19;50.10;;;24.50;;
29984;SDS011;17387;42.690;23.328;2023-03-31T17:01:39;44.28;;;13.77;;
29984;SDS011;17387;42.690;23.328;2023-03-31T17:04:05;35.55;;;15.02;;
29984;SDS011;17387;42.690;23.328;2023-03-31T17:06:30;30.45;;;13.00;;
29984;SDS011;17387;42.690;23.328;2023-03-31T17:08:55;30.53;;;11.70;;
29984;SDS011;17387;42.690;23.328;2023-03-31T17:11:20;26.20;;;11.82;;
29984;SDS011;17387;42.690;23.328;2023-03-31T17:13:46;22.88;;;11.00;;
29984;SDS011;17387;42.690;23.328;2023-03-31T17:16:12;31.92;;;11.85;;
29984;SDS011;17387;42.690;23.328;2023-03-31T17:18:38;29.13;;;13.05;;
29984;SDS011;17387;42.690;23.328;2023-03-31T17:21:07;34.05;;;13.77;;
29984;SDS011;17387;42.690;23.328;2023-03-31T17:23:33;24.90;;;9.30;;
29984;SDS011;17387;42.690;23.328;2023-03-31T17:25:59;29.95;;;15.63;;
29984;SDS011;17387;42.690;23.328;2023-03-31T17:28:24;38.70;;;15.30;;
29984;SDS011;17387;42.690;23.328;2023-03-31T17:30:49;21.33;;;10.25;;
29984;SDS011;17387;42.690;23.328;2023-03-31T17:33:15;23.88;;;10.63;;
29984;SDS011;17387;42.690;23.328;2023-03-31T17:35:41;30.00;;;12.35;;
29984;SDS011;17387;42.690;23.328;2023-03-31T17:38:06;19.63;;;8.65;;
29984;SDS011;17387;42.690;23.328;2023-03-31T17:40:33;27.38;;;13.40;;
29984;SDS011;17387;42.690;23.328;2023-03-31T17:42:59;26.98;;;13.23;;
29984;SDS011;17387;42.690;23.328;2023-03-31T17:45:24;43.20;;;19.77;;
29984;SDS011;17387;42.690;23.328;2023-03-31T17:47:49;28.35;;;13.32;;
29984;SDS011;17387;42.690;23.328;2023-03-31T17:50:15;38.75;;;17.75;;